Aeroporto :
LOGIN :

Iscrizione | Disclaimer

   EN    FR    IT 

 










Sommario :    VFR   VFR Marginale   IFR   IFR Intensivo   IFR Molto Intensivo
Visibilità : 
Base nubi : 
>= 8 km
>= 3000ft
5 / 8 km
1000 / 3000 ft
1500m / 5 km
500 / 1000 ft
800 / 1500m
200 / 500 ft
< 800m
< 200 ft
Simboli :   Temporali  Nebbia  Neve Forte  Precipitazioni Forti  Vento > 20 kt
SIGMETs :   Varie  Temporali  Ghiacco  Turbolenza  Onda orograficha  Ceneri Vulcaniche







- Altitudine del aeroporto : 1910 ft
- Codice IATA : RDZ
- Carte del aeroporto


LFCR - Rodez

ULTIMO METAR :
  • 210300Z AUTO 12004KT CAVOK 14/09 Q1018 NOSIG

METARs OBSOLETI :
  • 210230Z AUTO 09004KT CAVOK 16/09 Q1018 NOSIG
  • 210200Z AUTO 07006KT CAVOK 16/09 Q1018 NOSIG
  • 210130Z AUTO 11002KT CAVOK 16/09 Q1018 NOSIG
  • 210100Z AUTO VRB01KT CAVOK 15/09 Q1018 NOSIG
  • 210030Z AUTO 14003KT CAVOK 16/10 Q1018 NOSIG

TAF TAF LFCR
Valido dal 21 a 00 ore il 22 a 00 ore UTC


202300Z 2100/2124 17004KT CAVOK
BECMG 2106/2108 28008KT
BECMG 2116/2118 BKN035
Nessun NOTAM noto per questo aeroporto.



MetMap, La meteo Aeronautica in un colpo d'occhio ! - Copyright ORBIFLY Dicembre 2007 - Disclaimer

ORBIFLY MET'MAP TEAM :

Programmazione e sviluppo : Alexandra Zaïnal
Concezione e sviluppo : Baudouin d'Aumeries
Co-Programmazione e sviluppo : Marc-Olivier Méhu
Supporto tecnico e logistico : Manuel Goepfert
Aiuto per la traduzione : Arnaldo La Scala

Contatto : metmap@orbifly.com




FONTI E CREDITI :

   NOAA